Lagos, Nigeria
Current Conditions -  °F | °C
As of 11:00 AM on Wednesday 26 Nov 2014 (Local Time) from DBBB Reporting Station
Broken Clouds Broken Clouds  
Wind Chill: 30°   Ceiling: 12000
Heat Index: 39°   Visibility: 5mi
Dew Point: 27°   Wind: 8mph
Humidity: 84%   Direction: 250°WSW
Pressure: 29.85"   Gusts: NA
Location:  6.45°N, 3.47°E
Report Text: DBBB 261000Z 25007KT 210V270 8000 SCT012 BKN120 30/27 Q1011 TEMPO BKN006
Loading
Personal Weather Stations






























Interactive Weather Map New forecast layout! Learn more

10-Day Weather Forecast

Advertisements
Track Severe Weather on mobile